sensor_id;sensor_type;location;lat;lon;timestamp;P1;durP1;ratioP1;P2;durP2;ratioP2
11572;SDS011;5842;52.426;4.886;2023-09-19T00:01:20;8.23;;;2.30;;
11572;SDS011;5842;52.426;4.886;2023-09-19T00:03:47;7.03;;;2.57;;
11572;SDS011;5842;52.426;4.886;2023-09-19T00:06:16;6.25;;;2.33;;
11572;SDS011;5842;52.426;4.886;2023-09-19T00:08:45;6.03;;;2.40;;
11572;SDS011;5842;52.426;4.886;2023-09-19T00:11:13;5.10;;;2.30;;
11572;SDS011;5842;52.426;4.886;2023-09-19T00:13:40;7.40;;;2.50;;
11572;SDS011;5842;52.426;4.886;2023-09-19T00:16:09;7.13;;;2.58;;
11572;SDS011;5842;52.426;4.886;2023-09-19T00:18:37;7.68;;;3.13;;
11572;SDS011;5842;52.426;4.886;2023-09-19T00:21:05;7.45;;;3.30;;
11572;SDS011;5842;52.426;4.886;2023-09-19T00:23:34;7.13;;;2.95;;
11572;SDS011;5842;52.426;4.886;2023-09-19T00:26:01;6.35;;;2.40;;
11572;SDS011;5842;52.426;4.886;2023-09-19T00:28:29;7.70;;;2.83;;
11572;SDS011;5842;52.426;4.886;2023-09-19T00:30:57;6.80;;;2.47;;
11572;SDS011;5842;52.426;4.886;2023-09-19T00:33:27;8.75;;;2.67;;
11572;SDS011;5842;52.426;4.886;2023-09-19T00:35:56;8.75;;;2.42;;
11572;SDS011;5842;52.426;4.886;2023-09-19T00:38:23;7.35;;;2.10;;
11572;SDS011;5842;52.426;4.886;2023-09-19T00:40:53;10.52;;;2.55;;
11572;SDS011;5842;52.426;4.886;2023-09-19T00:43:22;8.45;;;2.35;;
11572;SDS011;5842;52.426;4.886;2023-09-19T00:45:51;7.90;;;2.15;;
11572;SDS011;5842;52.426;4.886;2023-09-19T00:48:19;8.10;;;2.22;;
11572;SDS011;5842;52.426;4.886;2023-09-19T00:50:47;8.75;;;2.30;;
11572;SDS011;5842;52.426;4.886;2023-09-19T00:53:17;7.85;;;2.50;;
11572;SDS011;5842;52.426;4.886;2023-09-19T00:55:45;6.63;;;2.33;;
11572;SDS011;5842;52.426;4.886;2023-09-19T00:58:14;7.35;;;2.17;;
11572;SDS011;5842;52.426;4.886;2023-09-19T01:00:43;7.28;;;2.50;;
11572;SDS011;5842;52.426;4.886;2023-09-19T01:03:11;7.10;;;2.33;;
11572;SDS011;5842;52.426;4.886;2023-09-19T01:05:40;7.55;;;2.45;;
11572;SDS011;5842;52.426;4.886;2023-09-19T01:08:07;7.85;;;2.47;;
11572;SDS011;5842;52.426;4.886;2023-09-19T01:10:36;8.85;;;2.25;;
11572;SDS011;5842;52.426;4.886;2023-09-19T01:13:11;7.28;;;2.30;;
11572;SDS011;5842;52.426;4.886;2023-09-19T01:15:44;6.05;;;2.10;;
11572;SDS011;5842;52.426;4.886;2023-09-19T01:18:16;6.60;;;2.43;;
11572;SDS011;5842;52.426;4.886;2023-09-19T01:20:52;8.88;;;2.47;;
11572;SDS011;5842;52.426;4.886;2023-09-19T01:23:22;8.10;;;2.25;;
11572;SDS011;5842;52.426;4.886;2023-09-19T01:26:05;7.50;;;2.72;;
11572;SDS011;5842;52.426;4.886;2023-09-19T01:28:43;8.38;;;2.40;;
11572;SDS011;5842;52.426;4.886;2023-09-19T01:31:14;7.32;;;2.50;;
11572;SDS011;5842;52.426;4.886;2023-09-19T01:33:54;8.88;;;2.40;;
11572;SDS011;5842;52.426;4.886;2023-09-19T01:36:24;8.90;;;2.60;;
11572;SDS011;5842;52.426;4.886;2023-09-19T01:38:52;7.53;;;2.45;;
11572;SDS011;5842;52.426;4.886;2023-09-19T01:41:21;8.80;;;2.50;;
11572;SDS011;5842;52.426;4.886;2023-09-19T01:43:50;6.97;;;2.45;;
11572;SDS011;5842;52.426;4.886;2023-09-19T01:46:19;9.63;;;2.55;;
11572;SDS011;5842;52.426;4.886;2023-09-19T01:48:49;8.95;;;2.53;;
11572;SDS011;5842;52.426;4.886;2023-09-19T01:51:22;8.70;;;2.40;;
11572;SDS011;5842;52.426;4.886;2023-09-19T01:53:53;8.48;;;2.50;;
11572;SDS011;5842;52.426;4.886;2023-09-19T01:56:24;10.43;;;2.80;;
11572;SDS011;5842;52.426;4.886;2023-09-19T02:01:22;11.00;;;3.20;;
11572;SDS011;5842;52.426;4.886;2023-09-19T02:03:49;10.35;;;2.97;;
11572;SDS011;5842;52.426;4.886;2023-09-19T02:06:17;11.65;;;2.78;;
11572;SDS011;5842;52.426;4.886;2023-09-19T02:08:46;10.67;;;2.90;;
11572;SDS011;5842;52.426;4.886;2023-09-19T02:11:13;11.40;;;2.88;;
11572;SDS011;5842;52.426;4.886;2023-09-19T02:13:41;11.40;;;2.90;;
11572;SDS011;5842;52.426;4.886;2023-09-19T02:16:09;9.82;;;2.92;;
11572;SDS011;5842;52.426;4.886;2023-09-19T02:18:39;9.13;;;2.70;;
11572;SDS011;5842;52.426;4.886;2023-09-19T02:21:06;9.68;;;2.83;;
11572;SDS011;5842;52.426;4.886;2023-09-19T02:23:35;10.35;;;2.58;;
11572;SDS011;5842;52.426;4.886;2023-09-19T02:26:03;10.10;;;2.97;;
11572;SDS011;5842;52.426;4.886;2023-09-19T02:30:58;10.30;;;3.23;;
11572;SDS011;5842;52.426;4.886;2023-09-19T02:33:25;13.02;;;2.90;;
11572;SDS011;5842;52.426;4.886;2023-09-19T02:35:56;11.75;;;2.90;;
11572;SDS011;5842;52.426;4.886;2023-09-19T02:38:23;10.40;;;3.00;;
11572;SDS011;5842;52.426;4.886;2023-09-19T02:40:51;9.70;;;3.05;;
11572;SDS011;5842;52.426;4.886;2023-09-19T02:43:20;10.82;;;3.03;;
11572;SDS011;5842;52.426;4.886;2023-09-19T02:45:47;10.88;;;2.70;;
11572;SDS011;5842;52.426;4.886;2023-09-19T02:48:15;8.57;;;2.50;;
11572;SDS011;5842;52.426;4.886;2023-09-19T02:50:43;10.95;;;2.83;;
11572;SDS011;5842;52.426;4.886;2023-09-19T02:53:12;10.82;;;2.65;;
11572;SDS011;5842;52.426;4.886;2023-09-19T02:55:40;9.15;;;2.58;;
11572;SDS011;5842;52.426;4.886;2023-09-19T02:58:08;7.85;;;2.60;;
11572;SDS011;5842;52.426;4.886;2023-09-19T03:00:36;10.55;;;2.67;;
11572;SDS011;5842;52.426;4.886;2023-09-19T03:03:04;8.70;;;2.90;;
11572;SDS011;5842;52.426;4.886;2023-09-19T03:05:33;7.65;;;2.40;;
11572;SDS011;5842;52.426;4.886;2023-09-19T03:08:01;8.07;;;2.50;;
11572;SDS011;5842;52.426;4.886;2023-09-19T03:10:30;10.17;;;2.67;;
11572;SDS011;5842;52.426;4.886;2023-09-19T03:12:58;8.27;;;2.47;;
11572;SDS011;5842;52.426;4.886;2023-09-19T03:15:26;8.18;;;2.40;;
11572;SDS011;5842;52.426;4.886;2023-09-19T03:17:53;8.43;;;2.58;;
11572;SDS011;5842;52.426;4.886;2023-09-19T03:20:21;10.75;;;2.70;;
11572;SDS011;5842;52.426;4.886;2023-09-19T03:22:48;8.50;;;2.47;;
11572;SDS011;5842;52.426;4.886;2023-09-19T03:25:16;8.85;;;2.58;;
11572;SDS011;5842;52.426;4.886;2023-09-19T03:27:45;9.75;;;2.83;;
11572;SDS011;5842;52.426;4.886;2023-09-19T03:30:13;8.35;;;2.50;;
11572;SDS011;5842;52.426;4.886;2023-09-19T03:32:44;10.98;;;2.72;;
11572;SDS011;5842;52.426;4.886;2023-09-19T03:35:15;10.70;;;2.55;;
11572;SDS011;5842;52.426;4.886;2023-09-19T03:37:42;10.50;;;2.80;;
11572;SDS011;5842;52.426;4.886;2023-09-19T03:40:10;9.27;;;2.83;;
11572;SDS011;5842;52.426;4.886;2023-09-19T03:42:38;8.30;;;2.55;;
11572;SDS011;5842;52.426;4.886;2023-09-19T03:45:08;9.80;;;2.63;;
11572;SDS011;5842;52.426;4.886;2023-09-19T03:47:38;10.73;;;2.85;;
11572;SDS011;5842;52.426;4.886;2023-09-19T03:50:05;11.52;;;2.90;;
11572;SDS011;5842;52.426;4.886;2023-09-19T03:52:35;9.65;;;2.50;;
11572;SDS011;5842;52.426;4.886;2023-09-19T03:55:03;7.72;;;2.70;;
11572;SDS011;5842;52.426;4.886;2023-09-19T03:57:31;10.68;;;3.20;;
11572;SDS011;5842;52.426;4.886;2023-09-19T04:00:01;8.75;;;2.80;;
11572;SDS011;5842;52.426;4.886;2023-09-19T04:02:31;9.98;;;2.80;;
11572;SDS011;5842;52.426;4.886;2023-09-19T04:04:58;8.77;;;2.40;;
11572;SDS011;5842;52.426;4.886;2023-09-19T04:07:26;9.02;;;2.40;;
11572;SDS011;5842;52.426;4.886;2023-09-19T04:09:54;8.23;;;2.38;;
11572;SDS011;5842;52.426;4.886;2023-09-19T04:12:21;8.50;;;2.42;;
11572;SDS011;5842;52.426;4.886;2023-09-19T04:14:49;9.25;;;2.40;;
11572;SDS011;5842;52.426;4.886;2023-09-19T04:17:16;9.43;;;2.60;;
11572;SDS011;5842;52.426;4.886;2023-09-19T04:19:45;11.57;;;2.97;;
11572;SDS011;5842;52.426;4.886;2023-09-19T04:22:13;11.87;;;2.70;;
11572;SDS011;5842;52.426;4.886;2023-09-19T04:24:40;11.43;;;2.88;;
11572;SDS011;5842;52.426;4.886;2023-09-19T04:27:08;13.55;;;3.20;;
11572;SDS011;5842;52.426;4.886;2023-09-19T04:29:37;12.27;;;2.60;;
11572;SDS011;5842;52.426;4.886;2023-09-19T04:32:05;10.63;;;2.92;;
11572;SDS011;5842;52.426;4.886;2023-09-19T04:34:33;11.25;;;2.67;;
11572;SDS011;5842;52.426;4.886;2023-09-19T04:37:02;8.52;;;2.55;;
11572;SDS011;5842;52.426;4.886;2023-09-19T04:39:29;9.00;;;2.90;;
11572;SDS011;5842;52.426;4.886;2023-09-19T04:41:57;9.50;;;2.92;;
11572;SDS011;5842;52.426;4.886;2023-09-19T04:44:24;8.20;;;2.67;;
11572;SDS011;5842;52.426;4.886;2023-09-19T04:46:52;9.63;;;2.53;;
11572;SDS011;5842;52.426;4.886;2023-09-19T04:49:20;9.77;;;2.70;;
11572;SDS011;5842;52.426;4.886;2023-09-19T04:51:47;10.48;;;3.00;;
11572;SDS011;5842;52.426;4.886;2023-09-19T04:54:16;9.63;;;2.70;;
11572;SDS011;5842;52.426;4.886;2023-09-19T04:56:43;9.60;;;2.80;;
11572;SDS011;5842;52.426;4.886;2023-09-19T04:59:11;10.88;;;2.65;;
11572;SDS011;5842;52.426;4.886;2023-09-19T05:01:40;12.75;;;3.20;;
11572;SDS011;5842;52.426;4.886;2023-09-19T05:04:07;8.25;;;2.95;;
11572;SDS011;5842;52.426;4.886;2023-09-19T05:06:35;6.90;;;2.33;;
11572;SDS011;5842;52.426;4.886;2023-09-19T05:09:02;8.52;;;2.55;;
11572;SDS011;5842;52.426;4.886;2023-09-19T05:11:32;8.52;;;2.17;;
11572;SDS011;5842;52.426;4.886;2023-09-19T05:13:59;8.27;;;2.63;;
11572;SDS011;5842;52.426;4.886;2023-09-19T05:16:29;7.70;;;2.40;;
11572;SDS011;5842;52.426;4.886;2023-09-19T05:18:56;9.50;;;2.80;;
11572;SDS011;5842;52.426;4.886;2023-09-19T05:21:25;9.15;;;2.70;;
11572;SDS011;5842;52.426;4.886;2023-09-19T05:23:53;8.95;;;2.78;;
11572;SDS011;5842;52.426;4.886;2023-09-19T05:26:21;9.35;;;2.72;;
11572;SDS011;5842;52.426;4.886;2023-09-19T05:28:50;8.30;;;2.75;;
11572;SDS011;5842;52.426;4.886;2023-09-19T05:31:18;12.70;;;2.80;;
11572;SDS011;5842;52.426;4.886;2023-09-19T05:33:45;10.40;;;2.80;;
11572;SDS011;5842;52.426;4.886;2023-09-19T05:36:15;10.60;;;2.78;;
11572;SDS011;5842;52.426;4.886;2023-09-19T05:38:43;9.02;;;2.65;;
11572;SDS011;5842;52.426;4.886;2023-09-19T05:41:11;10.38;;;2.97;;
11572;SDS011;5842;52.426;4.886;2023-09-19T05:43:39;8.63;;;2.72;;
11572;SDS011;5842;52.426;4.886;2023-09-19T05:46:08;9.57;;;3.13;;
11572;SDS011;5842;52.426;4.886;2023-09-19T05:48:35;8.60;;;2.83;;
11572;SDS011;5842;52.426;4.886;2023-09-19T05:51:04;11.57;;;3.17;;
11572;SDS011;5842;52.426;4.886;2023-09-19T05:53:32;11.02;;;3.33;;
11572;SDS011;5842;52.426;4.886;2023-09-19T05:55:59;10.38;;;2.90;;
11572;SDS011;5842;52.426;4.886;2023-09-19T05:58:28;11.20;;;3.43;;
11572;SDS011;5842;52.426;4.886;2023-09-19T06:00:55;9.98;;;3.00;;
11572;SDS011;5842;52.426;4.886;2023-09-19T06:03:24;10.38;;;3.20;;
11572;SDS011;5842;52.426;4.886;2023-09-19T06:05:51;12.48;;;3.17;;
11572;SDS011;5842;52.426;4.886;2023-09-19T06:08:22;13.77;;;2.97;;
11572;SDS011;5842;52.426;4.886;2023-09-19T06:10:51;12.55;;;3.05;;
11572;SDS011;5842;52.426;4.886;2023-09-19T06:13:18;10.27;;;2.97;;
11572;SDS011;5842;52.426;4.886;2023-09-19T06:15:46;11.50;;;2.83;;
11572;SDS011;5842;52.426;4.886;2023-09-19T06:18:14;11.63;;;2.73;;
11572;SDS011;5842;52.426;4.886;2023-09-19T06:20:46;9.82;;;2.92;;
11572;SDS011;5842;52.426;4.886;2023-09-19T06:23:16;9.75;;;2.92;;
11572;SDS011;5842;52.426;4.886;2023-09-19T06:28:12;11.90;;;2.95;;
11572;SDS011;5842;52.426;4.886;2023-09-19T06:30:39;12.30;;;3.13;;
11572;SDS011;5842;52.426;4.886;2023-09-19T06:33:07;13.20;;;3.30;;
11572;SDS011;5842;52.426;4.886;2023-09-19T06:35:36;11.80;;;3.47;;
11572;SDS011;5842;52.426;4.886;2023-09-19T06:38:05;10.50;;;3.30;;
11572;SDS011;5842;52.426;4.886;2023-09-19T06:40:33;12.68;;;3.70;;
11572;SDS011;5842;52.426;4.886;2023-09-19T06:43:01;11.30;;;3.43;;
11572;SDS011;5842;52.426;4.886;2023-09-19T06:45:29;12.20;;;3.50;;
11572;SDS011;5842;52.426;4.886;2023-09-19T06:47:57;15.23;;;3.55;;
11572;SDS011;5842;52.426;4.886;2023-09-19T06:50:28;10.13;;;3.22;;
11572;SDS011;5842;52.426;4.886;2023-09-19T06:52:58;12.98;;;3.60;;
11572;SDS011;5842;52.426;4.886;2023-09-19T06:55:28;10.75;;;3.10;;
11572;SDS011;5842;52.426;4.886;2023-09-19T06:57:57;12.93;;;3.28;;
11572;SDS011;5842;52.426;4.886;2023-09-19T07:00:24;12.20;;;3.30;;
11572;SDS011;5842;52.426;4.886;2023-09-19T07:05:20;11.60;;;3.42;;
11572;SDS011;5842;52.426;4.886;2023-09-19T07:07:48;11.50;;;3.20;;
11572;SDS011;5842;52.426;4.886;2023-09-19T07:10:15;11.75;;;3.30;;
11572;SDS011;5842;52.426;4.886;2023-09-19T07:12:44;12.18;;;3.25;;
11572;SDS011;5842;52.426;4.886;2023-09-19T07:15:12;12.43;;;3.45;;
11572;SDS011;5842;52.426;4.886;2023-09-19T07:17:39;10.75;;;3.15;;
11572;SDS011;5842;52.426;4.886;2023-09-19T07:20:07;10.70;;;3.10;;
11572;SDS011;5842;52.426;4.886;2023-09-19T07:22:35;9.02;;;2.85;;
11572;SDS011;5842;52.426;4.886;2023-09-19T07:44:14;12.68;;;3.22;;
11572;SDS011;5842;52.426;4.886;2023-09-19T08:58:10;13.13;;;3.85;;
11572;SDS011;5842;52.426;4.886;2023-09-19T09:00:38;9.10;;;3.00;;
11572;SDS011;5842;52.426;4.886;2023-09-19T09:03:09;11.60;;;3.60;;
11572;SDS011;5842;52.426;4.886;2023-09-19T10:03:11;11.73;;;3.40;;
11572;SDS011;5842;52.426;4.886;2023-09-19T11:40:26;10.65;;;2.60;;
11572;SDS011;5842;52.426;4.886;2023-09-19T11:47:51;8.90;;;2.80;;
11572;SDS011;5842;52.426;4.886;2023-09-19T11:50:18;8.48;;;2.42;;
11572;SDS011;5842;52.426;4.886;2023-09-19T11:52:46;6.70;;;2.45;;
11572;SDS011;5842;52.426;4.886;2023-09-19T11:55:16;8.45;;;2.40;;
11572;SDS011;5842;52.426;4.886;2023-09-19T11:57:48;7.28;;;2.45;;
11572;SDS011;5842;52.426;4.886;2023-09-19T12:02:43;8.48;;;2.45;;
11572;SDS011;5842;52.426;4.886;2023-09-19T12:05:12;7.68;;;2.35;;
11572;SDS011;5842;52.426;4.886;2023-09-19T12:07:43;8.50;;;2.70;;
11572;SDS011;5842;52.426;4.886;2023-09-19T12:10:13;7.30;;;2.50;;
11572;SDS011;5842;52.426;4.886;2023-09-19T12:12:47;8.48;;;2.60;;
11572;SDS011;5842;52.426;4.886;2023-09-19T12:15:17;9.30;;;2.63;;
11572;SDS011;5842;52.426;4.886;2023-09-19T12:17:54;10.07;;;2.87;;
11572;SDS011;5842;52.426;4.886;2023-09-19T12:20:22;7.20;;;2.80;;
11572;SDS011;5842;52.426;4.886;2023-09-19T12:22:50;8.43;;;2.63;;
11572;SDS011;5842;52.426;4.886;2023-09-19T12:25:17;8.02;;;2.90;;
11572;SDS011;5842;52.426;4.886;2023-09-19T12:27:48;8.93;;;2.90;;
11572;SDS011;5842;52.426;4.886;2023-09-19T12:30:18;7.93;;;2.40;;
11572;SDS011;5842;52.426;4.886;2023-09-19T12:32:46;6.80;;;2.67;;
11572;SDS011;5842;52.426;4.886;2023-09-19T12:35:26;6.80;;;2.33;;
11572;SDS011;5842;52.426;4.886;2023-09-19T12:37:55;7.60;;;2.50;;
11572;SDS011;5842;52.426;4.886;2023-09-19T12:40:23;7.68;;;2.47;;
11572;SDS011;5842;52.426;4.886;2023-09-19T12:42:54;5.22;;;2.33;;
11572;SDS011;5842;52.426;4.886;2023-09-19T13:05:08;6.78;;;3.00;;
11572;SDS011;5842;52.426;4.886;2023-09-19T13:07:42;6.90;;;2.72;;
11572;SDS011;5842;52.426;4.886;2023-09-19T13:12:42;7.22;;;3.03;;
11572;SDS011;5842;52.426;4.886;2023-09-19T13:15:16;8.73;;;2.97;;
11572;SDS011;5842;52.426;4.886;2023-09-19T13:17:45;7.50;;;3.20;;
11572;SDS011;5842;52.426;4.886;2023-09-19T13:20:22;9.45;;;3.20;;
11572;SDS011;5842;52.426;4.886;2023-09-19T13:27:51;9.02;;;3.35;;
11572;SDS011;5842;52.426;4.886;2023-09-19T13:30:21;7.45;;;3.20;;
11572;SDS011;5842;52.426;4.886;2023-09-19T13:35:19;8.80;;;2.97;;
11572;SDS011;5842;52.426;4.886;2023-09-19T13:42:42;9.23;;;3.00;;
11572;SDS011;5842;52.426;4.886;2023-09-19T13:47:41;9.60;;;2.97;;
11572;SDS011;5842;52.426;4.886;2023-09-19T13:50:08;10.55;;;3.50;;
11572;SDS011;5842;52.426;4.886;2023-09-19T13:52:36;6.10;;;2.90;;
11572;SDS011;5842;52.426;4.886;2023-09-19T13:57:33;9.00;;;3.08;;
11572;SDS011;5842;52.426;4.886;2023-09-19T14:02:31;8.75;;;3.28;;
11572;SDS011;5842;52.426;4.886;2023-09-19T14:07:26;8.95;;;3.17;;
11572;SDS011;5842;52.426;4.886;2023-09-19T14:12:21;10.48;;;3.17;;
11572;SDS011;5842;52.426;4.886;2023-09-19T14:14:48;8.50;;;3.05;;
11572;SDS011;5842;52.426;4.886;2023-09-19T14:17:16;9.80;;;3.30;;
11572;SDS011;5842;52.426;4.886;2023-09-19T14:19:45;9.55;;;3.20;;
11572;SDS011;5842;52.426;4.886;2023-09-19T14:22:13;9.05;;;3.03;;
11572;SDS011;5842;52.426;4.886;2023-09-19T14:24:41;8.45;;;3.50;;
11572;SDS011;5842;52.426;4.886;2023-09-19T14:27:09;8.93;;;3.67;;
11572;SDS011;5842;52.426;4.886;2023-09-19T14:29:36;9.35;;;3.85;;
11572;SDS011;5842;52.426;4.886;2023-09-19T14:32:04;9.60;;;3.80;;
11572;SDS011;5842;52.426;4.886;2023-09-19T14:34:32;10.77;;;3.70;;
11572;SDS011;5842;52.426;4.886;2023-09-19T14:37:03;10.65;;;3.70;;
11572;SDS011;5842;52.426;4.886;2023-09-19T14:39:33;12.40;;;4.00;;
11572;SDS011;5842;52.426;4.886;2023-09-19T14:42:00;10.38;;;3.67;;
11572;SDS011;5842;52.426;4.886;2023-09-19T14:44:28;11.93;;;3.83;;
11572;SDS011;5842;52.426;4.886;2023-09-19T14:46:55;10.35;;;3.42;;
11572;SDS011;5842;52.426;4.886;2023-09-19T14:49:23;10.68;;;3.80;;
11572;SDS011;5842;52.426;4.886;2023-09-19T14:51:51;10.35;;;3.83;;
11572;SDS011;5842;52.426;4.886;2023-09-19T14:54:20;11.95;;;4.13;;
11572;SDS011;5842;52.426;4.886;2023-09-19T14:56:49;10.45;;;4.15;;
11572;SDS011;5842;52.426;4.886;2023-09-19T14:59:29;11.93;;;3.95;;
11572;SDS011;5842;52.426;4.886;2023-09-19T15:01:57;12.73;;;3.65;;
11572;SDS011;5842;52.426;4.886;2023-09-19T15:04:24;11.60;;;4.10;;
11572;SDS011;5842;52.426;4.886;2023-09-19T15:06:52;9.68;;;3.47;;
11572;SDS011;5842;52.426;4.886;2023-09-19T15:09:22;10.65;;;3.63;;
11572;SDS011;5842;52.426;4.886;2023-09-19T15:11:51;12.80;;;4.00;;
11572;SDS011;5842;52.426;4.886;2023-09-19T15:14:18;10.93;;;3.88;;
11572;SDS011;5842;52.426;4.886;2023-09-19T15:16:46;13.10;;;4.22;;
11572;SDS011;5842;52.426;4.886;2023-09-19T15:19:13;12.17;;;4.40;;
11572;SDS011;5842;52.426;4.886;2023-09-19T15:21:41;14.57;;;4.50;;
11572;SDS011;5842;52.426;4.886;2023-09-19T15:24:09;14.73;;;4.05;;
11572;SDS011;5842;52.426;4.886;2023-09-19T15:26:38;12.82;;;4.20;;
11572;SDS011;5842;52.426;4.886;2023-09-19T15:29:05;15.30;;;4.65;;
11572;SDS011;5842;52.426;4.886;2023-09-19T15:31:33;12.75;;;4.43;;
11572;SDS011;5842;52.426;4.886;2023-09-19T15:34:01;13.88;;;4.53;;
11572;SDS011;5842;52.426;4.886;2023-09-19T15:36:29;11.83;;;4.60;;
11572;SDS011;5842;52.426;4.886;2023-09-19T15:38:59;11.50;;;4.65;;
11572;SDS011;5842;52.426;4.886;2023-09-19T15:41:29;12.05;;;4.57;;
11572;SDS011;5842;52.426;4.886;2023-09-19T15:43:58;14.10;;;4.70;;
11572;SDS011;5842;52.426;4.886;2023-09-19T15:46:26;13.95;;;5.15;;
11572;SDS011;5842;52.426;4.886;2023-09-19T15:48:54;14.57;;;4.90;;
11572;SDS011;5842;52.426;4.886;2023-09-19T15:51:22;12.68;;;4.80;;
11572;SDS011;5842;52.426;4.886;2023-09-19T15:53:50;17.63;;;5.90;;
11572;SDS011;5842;52.426;4.886;2023-09-19T15:56:18;15.50;;;5.15;;
11572;SDS011;5842;52.426;4.886;2023-09-19T15:58:48;16.43;;;5.37;;
11572;SDS011;5842;52.426;4.886;2023-09-19T16:01:18;14.43;;;5.30;;
11572;SDS011;5842;52.426;4.886;2023-09-19T16:03:46;15.07;;;5.30;;
11572;SDS011;5842;52.426;4.886;2023-09-19T16:06:15;14.45;;;5.72;;
11572;SDS011;5842;52.426;4.886;2023-09-19T16:08:43;14.13;;;5.78;;
11572;SDS011;5842;52.426;4.886;2023-09-19T16:11:11;15.85;;;5.43;;
11572;SDS011;5842;52.426;4.886;2023-09-19T16:13:40;14.00;;;5.85;;
11572;SDS011;5842;52.426;4.886;2023-09-19T16:16:07;14.90;;;6.05;;
11572;SDS011;5842;52.426;4.886;2023-09-19T16:18:43;15.15;;;5.55;;
11572;SDS011;5842;52.426;4.886;2023-09-19T16:21:14;15.02;;;5.68;;
11572;SDS011;5842;52.426;4.886;2023-09-19T16:23:44;13.75;;;5.47;;
11572;SDS011;5842;52.426;4.886;2023-09-19T16:26:12;14.98;;;5.72;;
11572;SDS011;5842;52.426;4.886;2023-09-19T16:28:39;12.98;;;5.47;;
11572;SDS011;5842;52.426;4.886;2023-09-19T16:31:08;16.10;;;5.60;;
11572;SDS011;5842;52.426;4.886;2023-09-19T16:33:36;16.30;;;5.53;;
11572;SDS011;5842;52.426;4.886;2023-09-19T16:36:08;18.25;;;5.50;;
11572;SDS011;5842;52.426;4.886;2023-09-19T16:38:39;14.82;;;5.30;;
11572;SDS011;5842;52.426;4.886;2023-09-19T16:41:24;12.15;;;5.28;;
11572;SDS011;5842;52.426;4.886;2023-09-19T16:43:56;17.30;;;5.35;;
11572;SDS011;5842;52.426;4.886;2023-09-19T16:46:47;12.27;;;5.10;;
11572;SDS011;5842;52.426;4.886;2023-09-19T16:49:17;14.63;;;5.45;;
11572;SDS011;5842;52.426;4.886;2023-09-19T16:51:54;16.55;;;6.60;;
11572;SDS011;5842;52.426;4.886;2023-09-19T16:54:22;18.35;;;7.72;;
11572;SDS011;5842;52.426;4.886;2023-09-19T16:56:56;20.80;;;9.88;;
11572;SDS011;5842;52.426;4.886;2023-09-19T16:59:34;26.98;;;13.95;;
11572;SDS011;5842;52.426;4.886;2023-09-19T17:02:11;27.27;;;15.13;;
11572;SDS011;5842;52.426;4.886;2023-09-19T17:04:38;30.45;;;15.80;;
11572;SDS011;5842;52.426;4.886;2023-09-19T17:07:09;30.92;;;15.05;;
11572;SDS011;5842;52.426;4.886;2023-09-19T17:09:39;28.30;;;14.15;;
11572;SDS011;5842;52.426;4.886;2023-09-19T17:12:06;27.40;;;13.27;;
11572;SDS011;5842;52.426;4.886;2023-09-19T17:14:38;30.63;;;14.65;;
11572;SDS011;5842;52.426;4.886;2023-09-19T17:17:05;32.08;;;16.95;;
11572;SDS011;5842;52.426;4.886;2023-09-19T17:19:37;34.27;;;17.80;;
11572;SDS011;5842;52.426;4.886;2023-09-19T17:22:04;32.03;;;16.88;;
11572;SDS011;5842;52.426;4.886;2023-09-19T17:24:34;30.92;;;16.48;;
11572;SDS011;5842;52.426;4.886;2023-09-19T17:27:01;29.63;;;15.32;;
11572;SDS011;5842;52.426;4.886;2023-09-19T17:29:32;28.00;;;14.30;;
11572;SDS011;5842;52.426;4.886;2023-09-19T17:32:00;25.58;;;14.32;;
11572;SDS011;5842;52.426;4.886;2023-09-19T17:34:27;25.65;;;13.20;;
11572;SDS011;5842;52.426;4.886;2023-09-19T17:36:55;23.33;;;11.27;;
11572;SDS011;5842;52.426;4.886;2023-09-19T17:39:23;20.25;;;9.88;;
11572;SDS011;5842;52.426;4.886;2023-09-19T17:41:51;18.65;;;8.25;;
11572;SDS011;5842;52.426;4.886;2023-09-19T17:44:19;16.83;;;7.53;;
11572;SDS011;5842;52.426;4.886;2023-09-19T17:46:49;17.10;;;7.20;;
11572;SDS011;5842;52.426;4.886;2023-09-19T17:49:17;14.38;;;6.85;;
11572;SDS011;5842;52.426;4.886;2023-09-19T17:51:46;16.35;;;6.85;;
11572;SDS011;5842;52.426;4.886;2023-09-19T17:54:16;16.15;;;6.05;;
11572;SDS011;5842;52.426;4.886;2023-09-19T17:56:44;12.95;;;5.45;;
11572;SDS011;5842;52.426;4.886;2023-09-19T17:59:13;14.02;;;5.53;;
11572;SDS011;5842;52.426;4.886;2023-09-19T18:01:40;12.88;;;5.45;;
11572;SDS011;5842;52.426;4.886;2023-09-19T18:04:09;13.60;;;5.40;;
11572;SDS011;5842;52.426;4.886;2023-09-19T18:06:36;12.60;;;5.40;;
11572;SDS011;5842;52.426;4.886;2023-09-19T18:09:05;14.60;;;5.30;;
11572;SDS011;5842;52.426;4.886;2023-09-19T18:11:35;15.25;;;5.85;;
11572;SDS011;5842;52.426;4.886;2023-09-19T18:14:02;15.43;;;5.63;;
11572;SDS011;5842;52.426;4.886;2023-09-19T18:16:31;16.15;;;5.70;;
11572;SDS011;5842;52.426;4.886;2023-09-19T18:18:59;10.85;;;5.57;;
11572;SDS011;5842;52.426;4.886;2023-09-19T18:21:27;12.37;;;5.30;;
11572;SDS011;5842;52.426;4.886;2023-09-19T18:24:03;12.88;;;5.53;;
11572;SDS011;5842;52.426;4.886;2023-09-19T18:26:36;13.30;;;5.32;;
11572;SDS011;5842;52.426;4.886;2023-09-19T18:29:04;11.90;;;5.25;;
11572;SDS011;5842;52.426;4.886;2023-09-19T18:31:33;12.82;;;5.80;;
11572;SDS011;5842;52.426;4.886;2023-09-19T18:34:00;11.68;;;5.85;;
11572;SDS011;5842;52.426;4.886;2023-09-19T18:36:28;14.10;;;5.90;;
11572;SDS011;5842;52.426;4.886;2023-09-19T18:38:55;15.00;;;6.20;;
11572;SDS011;5842;52.426;4.886;2023-09-19T18:41:23;13.53;;;6.10;;
11572;SDS011;5842;52.426;4.886;2023-09-19T18:43:51;12.57;;;6.07;;
11572;SDS011;5842;52.426;4.886;2023-09-19T18:46:18;13.00;;;6.00;;
11572;SDS011;5842;52.426;4.886;2023-09-19T18:48:51;10.75;;;5.88;;
11572;SDS011;5842;52.426;4.886;2023-09-19T18:51:19;12.18;;;6.00;;
11572;SDS011;5842;52.426;4.886;2023-09-19T18:53:49;13.97;;;5.97;;
11572;SDS011;5842;52.426;4.886;2023-09-19T18:56:16;10.88;;;6.50;;
11572;SDS011;5842;52.426;4.886;2023-09-19T18:58:44;10.68;;;6.68;;
11572;SDS011;5842;52.426;4.886;2023-09-19T19:01:13;12.25;;;7.38;;
11572;SDS011;5842;52.426;4.886;2023-09-19T19:03:41;12.33;;;8.40;;
11572;SDS011;5842;52.426;4.886;2023-09-19T19:06:12;12.50;;;7.43;;
11572;SDS011;5842;52.426;4.886;2023-09-19T19:08:42;14.57;;;7.93;;
11572;SDS011;5842;52.426;4.886;2023-09-19T19:11:10;15.75;;;8.15;;
11572;SDS011;5842;52.426;4.886;2023-09-19T19:13:39;12.75;;;7.88;;
11572;SDS011;5842;52.426;4.886;2023-09-19T19:16:10;13.05;;;7.30;;
11572;SDS011;5842;52.426;4.886;2023-09-19T19:18:38;12.02;;;6.88;;
11572;SDS011;5842;52.426;4.886;2023-09-19T19:21:06;12.70;;;7.32;;
11572;SDS011;5842;52.426;4.886;2023-09-19T19:23:35;13.38;;;7.32;;
11572;SDS011;5842;52.426;4.886;2023-09-19T19:26:02;12.25;;;7.13;;
11572;SDS011;5842;52.426;4.886;2023-09-19T19:28:31;14.07;;;7.37;;
11572;SDS011;5842;52.426;4.886;2023-09-19T19:30:59;14.10;;;7.55;;
11572;SDS011;5842;52.426;4.886;2023-09-19T19:33:28;16.55;;;7.38;;
11572;SDS011;5842;52.426;4.886;2023-09-19T19:36:02;14.23;;;7.87;;
11572;SDS011;5842;52.426;4.886;2023-09-19T19:38:31;13.25;;;7.53;;
11572;SDS011;5842;52.426;4.886;2023-09-19T19:41:00;12.65;;;8.07;;
11572;SDS011;5842;52.426;4.886;2023-09-19T19:43:27;14.13;;;7.85;;
11572;SDS011;5842;52.426;4.886;2023-09-19T19:45:55;13.57;;;8.20;;
11572;SDS011;5842;52.426;4.886;2023-09-19T19:48:23;16.80;;;7.85;;
11572;SDS011;5842;52.426;4.886;2023-09-19T19:50:51;14.25;;;7.90;;
11572;SDS011;5842;52.426;4.886;2023-09-19T19:53:19;17.08;;;8.05;;
11572;SDS011;5842;52.426;4.886;2023-09-19T19:55:48;15.87;;;8.27;;
11572;SDS011;5842;52.426;4.886;2023-09-19T19:58:18;16.65;;;7.70;;
11572;SDS011;5842;52.426;4.886;2023-09-19T20:00:47;16.13;;;7.80;;
11572;SDS011;5842;52.426;4.886;2023-09-19T20:03:15;14.20;;;7.53;;
11572;SDS011;5842;52.426;4.886;2023-09-19T20:05:42;13.52;;;7.20;;
11572;SDS011;5842;52.426;4.886;2023-09-19T20:08:13;14.18;;;7.32;;
11572;SDS011;5842;52.426;4.886;2023-09-19T20:10:40;13.73;;;7.18;;